Accueil
METAR-TAF:

METAR-TAF

Aéroports :

Aéroport international Bandaranaike

Colombo, Sri Lanka

latitude: 07-10N, longitude: 079-53E, altitude: 8 m

Observation

Le bulletin a été fait il y a 21 minutes, à 20:10 UTC
Vent 5 kt de sud, variant entre sud-est et ouest/sud-ouest
Température 26°C
Humidité 89%
Pression 1009 hPa
Visibilité 10 km ou plus
Quelques nuages à une hauteur de 1900 ft

METAR: VCBI 212010Z 18005KT 130V240 9999 FEW019 26/24 Q1009 NOSIG

Heure: 02:01 (20:31 UTC)

Prévision

Le bulletin a été fait il y a 3 heures et 31 minutes, à 17:00 UTC
Prévision valable du 21 à 18 UTC au 22 à 24 UTC
Vent 8 kt de sud-ouest
Visibilité 10 km ou plus
Quelques nuages à une hauteur de 1700 ft

TAF: VCBI 211700Z 2118/2224 23008KT 9999 FEW017 TX32/2208Z TN26/2200Z

Observations et prévisions météorologiques de plus de 4000 aéroports (messages METAR et TAF).

Les stations disponibles sont représentées par des disques jaunes et rouges sur la carte.

Passer la souris dessus pour voir le nom de la station.

Cliquer dessus pour voir les observations et prévisions météorologiques.

Pour changer de carte: cliquez sur les boutons verts avec une croix noire pour zoomer, sur le bouton vert avec un tiret pour effectuer un zoom arrière, ou sur les flèches vertes pour les cartes adjacentes.


METAR-TAF: